sensor_id;sensor_type;location;lat;lon;timestamp;pressure;altitude;pressure_sealevel;temperature;humidity
3796;BME280;1913;50.660;7.834;2023-05-11T00:00:26;150519.22;;;10.02;100.00
3796;BME280;1913;50.660;7.834;2023-05-11T00:02:51;150525.50;;;10.05;100.00
3796;BME280;1913;50.660;7.834;2023-05-11T00:05:17;150534.31;;;10.08;100.00
3796;BME280;1913;50.660;7.834;2023-05-11T00:07:42;150539.34;;;10.11;100.00
3796;BME280;1913;50.660;7.834;2023-05-11T00:10:08;150558.19;;;10.18;100.00
3796;BME280;1913;50.660;7.834;2023-05-11T00:12:34;150545.59;;;10.13;100.00
3796;BME280;1913;50.660;7.834;2023-05-11T00:14:59;150550.63;;;10.15;100.00
3796;BME280;1913;50.660;7.834;2023-05-11T00:17:25;150533.06;;;10.08;100.00
3796;BME280;1913;50.660;7.834;2023-05-11T00:19:50;150543.09;;;10.12;100.00
3796;BME280;1913;50.660;7.834;2023-05-11T00:22:15;150511.69;;;9.99;100.00
3796;BME280;1913;50.660;7.834;2023-05-11T00:24:41;150554.38;;;10.17;100.00
3796;BME280;1913;50.660;7.834;2023-05-11T00:27:06;150521.75;;;10.03;100.00
3796;BME280;1913;50.660;7.834;2023-05-11T00:29:31;150533.06;;;10.08;100.00
3796;BME280;1913;50.660;7.834;2023-05-11T00:31:57;150504.19;;;9.96;100.00
3796;BME280;1913;50.660;7.834;2023-05-11T00:34:22;150506.69;;;9.97;100.00
3796;BME280;1913;50.660;7.834;2023-05-11T00:36:47;150520.47;;;10.03;100.00
3796;BME280;1913;50.660;7.834;2023-05-11T00:39:13;150549.38;;;10.15;100.00
3796;BME280;1913;50.660;7.834;2023-05-11T00:41:39;150536.81;;;10.10;100.00
3796;BME280;1913;50.660;7.834;2023-05-11T00:44:04;150541.84;;;10.12;100.00
3796;BME280;1913;50.660;7.834;2023-05-11T00:46:30;150524.25;;;10.04;100.00
3796;BME280;1913;50.660;7.834;2023-05-11T00:48:56;150521.75;;;10.03;100.00
3796;BME280;1913;50.660;7.834;2023-05-11T00:51:21;150507.94;;;9.98;100.00
3796;BME280;1913;50.660;7.834;2023-05-11T00:53:48;150523.00;;;10.04;100.00
3796;BME280;1913;50.660;7.834;2023-05-11T00:56:14;150526.75;;;10.05;100.00
3796;BME280;1913;50.660;7.834;2023-05-11T00:58:40;150541.84;;;10.12;100.00
3796;BME280;1913;50.660;7.834;2023-05-11T01:01:05;150536.81;;;10.10;100.00
3796;BME280;1913;50.660;7.834;2023-05-11T01:03:34;150544.34;;;10.13;100.00
3796;BME280;1913;50.660;7.834;2023-05-11T01:06:21;150531.81;;;10.07;100.00
3796;BME280;1913;50.660;7.834;2023-05-11T01:08:52;150559.44;;;10.19;100.00
3796;BME280;1913;50.660;7.834;2023-05-11T01:11:35;150563.19;;;10.20;100.00
3796;BME280;1913;50.660;7.834;2023-05-11T01:14:05;150555.63;;;10.17;100.00
3796;BME280;1913;50.660;7.834;2023-05-11T01:16:37;150559.44;;;10.19;100.00
3796;BME280;1913;50.660;7.834;2023-05-11T01:19:17;150577.06;;;10.26;100.00
3796;BME280;1913;50.660;7.834;2023-05-11T01:21:45;150566.97;;;10.22;100.00
3796;BME280;1913;50.660;7.834;2023-05-11T01:24:43;150569.47;;;10.23;100.00
3796;BME280;1913;50.660;7.834;2023-05-11T01:30:34;150564.44;;;10.21;100.00
3796;BME280;1913;50.660;7.834;2023-05-11T01:33:24;150541.84;;;10.12;100.00
3796;BME280;1913;50.660;7.834;2023-05-11T01:35:52;150546.84;;;10.14;100.00
3796;BME280;1913;50.660;7.834;2023-05-11T01:38:23;150535.56;;;10.09;100.00
3796;BME280;1913;50.660;7.834;2023-05-11T01:40:53;150545.59;;;10.13;100.00
3796;BME280;1913;50.660;7.834;2023-05-11T01:43:22;150543.09;;;10.12;100.00
3796;BME280;1913;50.660;7.834;2023-05-11T01:45:51;150529.25;;;10.06;100.00
3796;BME280;1913;50.660;7.834;2023-05-11T01:48:21;150538.06;;;10.10;100.00
3796;BME280;1913;50.660;7.834;2023-05-11T01:50:49;150549.38;;;10.15;100.00
3796;BME280;1913;50.660;7.834;2023-05-11T01:53:16;150559.44;;;10.19;100.00
3796;BME280;1913;50.660;7.834;2023-05-11T01:55:42;150555.63;;;10.17;100.00
3796;BME280;1913;50.660;7.834;2023-05-11T01:58:12;150556.94;;;10.18;100.00
3796;BME280;1913;50.660;7.834;2023-05-11T02:00:40;150559.44;;;10.19;100.00
3796;BME280;1913;50.660;7.834;2023-05-11T02:03:07;150566.97;;;10.22;100.00
3796;BME280;1913;50.660;7.834;2023-05-11T02:05:34;150556.94;;;10.18;100.00
3796;BME280;1913;50.660;7.834;2023-05-11T02:08:00;150558.19;;;10.18;100.00
3796;BME280;1913;50.660;7.834;2023-05-11T02:10:27;150556.94;;;10.18;100.00
3796;BME280;1913;50.660;7.834;2023-05-11T02:12:54;150553.13;;;10.16;100.00
3796;BME280;1913;50.660;7.834;2023-05-11T02:15:21;150560.69;;;10.19;100.00
3796;BME280;1913;50.660;7.834;2023-05-11T02:17:48;150564.44;;;10.21;100.00
3796;BME280;1913;50.660;7.834;2023-05-11T02:20:15;150553.13;;;10.16;100.00
3796;BME280;1913;50.660;7.834;2023-05-11T02:22:42;150536.81;;;10.10;100.00
3796;BME280;1913;50.660;7.834;2023-05-11T02:25:10;150538.06;;;10.10;100.00
3796;BME280;1913;50.660;7.834;2023-05-11T02:27:37;150538.06;;;10.10;100.00
3796;BME280;1913;50.660;7.834;2023-05-11T02:30:04;150544.34;;;10.13;100.00
3796;BME280;1913;50.660;7.834;2023-05-11T02:32:35;150544.34;;;10.13;100.00
3796;BME280;1913;50.660;7.834;2023-05-11T02:35:19;150539.34;;;10.11;100.00
3796;BME280;1913;50.660;7.834;2023-05-11T02:37:47;150540.59;;;10.11;100.00
3796;BME280;1913;50.660;7.834;2023-05-11T02:40:17;150545.59;;;10.13;100.00
3796;BME280;1913;50.660;7.834;2023-05-11T02:42:48;150534.31;;;10.08;100.00
3796;BME280;1913;50.660;7.834;2023-05-11T02:45:16;150519.22;;;10.02;100.00
3796;BME280;1913;50.660;7.834;2023-05-11T02:47:51;150481.56;;;9.87;100.00
3796;BME280;1913;50.660;7.834;2023-05-11T02:50:19;150438.84;;;9.70;100.00
3796;BME280;1913;50.660;7.834;2023-05-11T02:52:48;150457.69;;;9.77;100.00
3796;BME280;1913;50.660;7.834;2023-05-11T02:55:16;150446.38;;;9.73;100.00
3796;BME280;1913;50.660;7.834;2023-05-11T02:57:43;150438.84;;;9.70;100.00
3796;BME280;1913;50.660;7.834;2023-05-11T03:00:10;150420.03;;;9.62;100.00
3796;BME280;1913;50.660;7.834;2023-05-11T03:02:36;150421.25;;;9.63;100.00
3796;BME280;1913;50.660;7.834;2023-05-11T03:05:01;150414.97;;;9.60;100.00
3796;BME280;1913;50.660;7.834;2023-05-11T03:07:47;150384.84;;;9.48;100.00
3796;BME280;1913;50.660;7.834;2023-05-11T03:10:32;150361.00;;;9.38;100.00
3796;BME280;1913;50.660;7.834;2023-05-11T03:13:18;150358.50;;;9.37;100.00
3796;BME280;1913;50.660;7.834;2023-05-11T03:15:46;150332.13;;;9.26;100.00
3796;BME280;1913;50.660;7.834;2023-05-11T03:18:17;150339.66;;;9.29;100.00
3796;BME280;1913;50.660;7.834;2023-05-11T03:20:44;150312.06;;;9.18;100.00
3796;BME280;1913;50.660;7.834;2023-05-11T03:23:10;150273.13;;;9.02;100.00
3796;BME280;1913;50.660;7.834;2023-05-11T03:25:40;150249.25;;;8.93;100.00
3796;BME280;1913;50.660;7.834;2023-05-11T03:28:06;150256.78;;;8.96;100.00
3796;BME280;1913;50.660;7.834;2023-05-11T03:30:33;150239.22;;;8.88;100.00
3796;BME280;1913;50.660;7.834;2023-05-11T03:32:58;150230.44;;;8.85;100.00
3796;BME280;1913;50.660;7.834;2023-05-11T03:35:26;150189.06;;;8.68;100.00
3796;BME280;1913;50.660;7.834;2023-05-11T03:37:51;150147.63;;;8.51;100.00
3796;BME280;1913;50.660;7.834;2023-05-11T03:40:20;150137.59;;;8.47;100.00
3796;BME280;1913;50.660;7.834;2023-05-11T03:42:47;150106.19;;;8.34;100.00
3796;BME280;1913;50.660;7.834;2023-05-11T03:45:16;150106.19;;;8.34;100.00
3796;BME280;1913;50.660;7.834;2023-05-11T03:47:45;150102.44;;;8.33;100.00
3796;BME280;1913;50.660;7.834;2023-05-11T03:50:12;150086.13;;;8.26;100.00
3796;BME280;1913;50.660;7.834;2023-05-11T03:52:37;150067.31;;;8.19;100.00
3796;BME280;1913;50.660;7.834;2023-05-11T03:55:04;150058.53;;;8.15;100.00
3796;BME280;1913;50.660;7.834;2023-05-11T03:57:30;150068.56;;;8.19;100.00
3796;BME280;1913;50.660;7.834;2023-05-11T03:59:56;150061.03;;;8.16;100.00
3796;BME280;1913;50.660;7.834;2023-05-11T04:02:21;150042.22;;;8.08;100.00
3796;BME280;1913;50.660;7.834;2023-05-11T04:04:49;150052.25;;;8.12;100.00
3796;BME280;1913;50.660;7.834;2023-05-11T04:07:16;150051.00;;;8.12;100.00
3796;BME280;1913;50.660;7.834;2023-05-11T04:09:41;150042.22;;;8.08;100.00
3796;BME280;1913;50.660;7.834;2023-05-11T04:12:07;150047.19;;;8.10;100.00
3796;BME280;1913;50.660;7.834;2023-05-11T04:14:52;150062.28;;;8.16;100.00
3796;BME280;1913;50.660;7.834;2023-05-11T04:17:37;150062.28;;;8.16;100.00
3796;BME280;1913;50.660;7.834;2023-05-11T04:20:02;150004.56;;;7.93;100.00
3796;BME280;1913;50.660;7.834;2023-05-11T04:22:28;150030.88;;;8.04;100.00
3796;BME280;1913;50.660;7.834;2023-05-11T04:24:53;150049.75;;;8.11;100.00
3796;BME280;1913;50.660;7.834;2023-05-11T04:27:19;150043.47;;;8.09;100.00
3796;BME280;1913;50.660;7.834;2023-05-11T04:29:44;150057.22;;;8.14;100.00
3796;BME280;1913;50.660;7.834;2023-05-11T04:32:10;150088.63;;;8.27;100.00
3796;BME280;1913;50.660;7.834;2023-05-11T04:34:35;150125.03;;;8.42;100.00
3796;BME280;1913;50.660;7.834;2023-05-11T04:37:01;150142.59;;;8.49;100.00
3796;BME280;1913;50.660;7.834;2023-05-11T04:39:31;150165.22;;;8.58;100.00
3796;BME280;1913;50.660;7.834;2023-05-11T04:41:58;150192.81;;;8.70;100.00
3796;BME280;1913;50.660;7.834;2023-05-11T04:44:23;150200.34;;;8.73;100.00
3796;BME280;1913;50.660;7.834;2023-05-11T04:46:53;150227.94;;;8.84;100.00
3796;BME280;1913;50.660;7.834;2023-05-11T04:49:18;150256.78;;;8.96;100.00
3796;BME280;1913;50.660;7.834;2023-05-11T04:51:44;150268.13;;;9.00;100.00
3796;BME280;1913;50.660;7.834;2023-05-11T04:54:09;150274.38;;;9.03;100.00
3796;BME280;1913;50.660;7.834;2023-05-11T04:56:55;150304.53;;;9.15;100.00
3796;BME280;1913;50.660;7.834;2023-05-11T04:59:40;150324.59;;;9.23;100.00
3796;BME280;1913;50.660;7.834;2023-05-11T05:02:25;150348.47;;;9.33;100.00
3796;BME280;1913;50.660;7.834;2023-05-11T05:04:51;150349.72;;;9.33;100.00
3796;BME280;1913;50.660;7.834;2023-05-11T05:07:17;150366.03;;;9.40;100.00
3796;BME280;1913;50.660;7.834;2023-05-11T05:10:03;150389.91;;;9.50;100.00
3796;BME280;1913;50.660;7.834;2023-05-11T05:12:52;150381.13;;;9.46;100.00
3796;BME280;1913;50.660;7.834;2023-05-11T05:15:18;150413.72;;;9.59;100.00
3796;BME280;1913;50.660;7.834;2023-05-11T05:17:43;150408.72;;;9.57;100.00
3796;BME280;1913;50.660;7.834;2023-05-11T05:20:09;150437.59;;;9.69;100.00
3796;BME280;1913;50.660;7.834;2023-05-11T05:22:34;150393.66;;;9.51;100.00
3796;BME280;1913;50.660;7.834;2023-05-11T05:25:00;150398.69;;;9.53;100.00
3796;BME280;1913;50.660;7.834;2023-05-11T05:27:25;150378.56;;;9.45;100.00
3796;BME280;1913;50.660;7.834;2023-05-11T05:29:50;150357.25;;;9.37;100.00
3796;BME280;1913;50.660;7.834;2023-05-11T05:32:16;150402.44;;;9.55;100.00
3796;BME280;1913;50.660;7.834;2023-05-11T05:34:41;150376.06;;;9.44;100.00
3796;BME280;1913;50.660;7.834;2023-05-11T05:37:07;150386.09;;;9.48;100.00
3796;BME280;1913;50.660;7.834;2023-05-11T05:39:33;150382.38;;;9.47;100.00
3796;BME280;1913;50.660;7.834;2023-05-11T05:41:58;150399.94;;;9.54;100.00
3796;BME280;1913;50.660;7.834;2023-05-11T05:44:24;150430.06;;;9.66;100.00
3796;BME280;1913;50.660;7.834;2023-05-11T05:46:49;150472.75;;;9.83;100.00
3796;BME280;1913;50.660;7.834;2023-05-11T05:49:14;150499.13;;;9.94;100.00
3796;BME280;1913;50.660;7.834;2023-05-11T05:51:40;150480.31;;;9.87;100.00
3796;BME280;1913;50.660;7.834;2023-05-11T05:54:05;150489.09;;;9.90;100.00
3796;BME280;1913;50.660;7.834;2023-05-11T05:56:31;150510.44;;;9.99;100.00
3796;BME280;1913;50.660;7.834;2023-05-11T05:58:59;150477.81;;;9.86;100.00
3796;BME280;1913;50.660;7.834;2023-05-11T06:01:24;150549.38;;;10.15;100.00
3796;BME280;1913;50.660;7.834;2023-05-11T06:03:50;150561.94;;;10.20;100.00
3796;BME280;1913;50.660;7.834;2023-05-11T06:06:16;150556.94;;;10.18;100.00
3796;BME280;1913;50.660;7.834;2023-05-11T06:08:41;150561.94;;;10.20;100.00
3796;BME280;1913;50.660;7.834;2023-05-11T06:11:07;150575.81;;;10.25;100.00
3796;BME280;1913;50.660;7.834;2023-05-11T06:13:33;150560.69;;;10.19;100.00
3796;BME280;1913;50.660;7.834;2023-05-11T06:15:58;150599.66;;;10.35;100.00
3796;BME280;1913;50.660;7.834;2023-05-11T06:18:23;150614.75;;;10.41;100.00
3796;BME280;1913;50.660;7.834;2023-05-11T06:20:49;150633.59;;;10.49;100.00
3796;BME280;1913;50.660;7.834;2023-05-11T06:23:14;150633.59;;;10.49;100.00
3796;BME280;1913;50.660;7.834;2023-05-11T06:25:40;150667.53;;;10.63;100.00
3796;BME280;1913;50.660;7.834;2023-05-11T06:28:06;150686.34;;;10.70;100.00
3796;BME280;1913;50.660;7.834;2023-05-11T06:30:32;150721.53;;;10.85;100.00
3796;BME280;1913;50.660;7.834;2023-05-11T06:32:57;150735.38;;;10.90;100.00
3796;BME280;1913;50.660;7.834;2023-05-11T06:35:23;150768.09;;;11.03;100.00
3796;BME280;1913;50.660;7.834;2023-05-11T06:37:48;150779.38;;;11.08;100.00
3796;BME280;1913;50.660;7.834;2023-05-11T06:40:14;150793.22;;;11.14;100.00
3796;BME280;1913;50.660;7.834;2023-05-11T06:42:49;150818.31;;;11.24;100.00
3796;BME280;1913;50.660;7.834;2023-05-11T06:45:34;150828.44;;;11.28;100.00
3796;BME280;1913;50.660;7.834;2023-05-11T06:48:01;150869.88;;;11.45;100.00
3796;BME280;1913;50.660;7.834;2023-05-11T06:50:29;150867.38;;;11.44;100.00
3796;BME280;1913;50.660;7.834;2023-05-11T06:52:55;150863.63;;;11.42;100.00
3796;BME280;1913;50.660;7.834;2023-05-11T06:55:21;150877.44;;;11.48;100.00
3796;BME280;1913;50.660;7.834;2023-05-11T06:57:46;150869.88;;;11.45;100.00
3796;BME280;1913;50.660;7.834;2023-05-11T07:00:12;150849.78;;;11.37;100.00
3796;BME280;1913;50.660;7.834;2023-05-11T07:02:37;150867.38;;;11.44;100.00
3796;BME280;1913;50.660;7.834;2023-05-11T07:05:03;150868.63;;;11.44;100.00
3796;BME280;1913;50.660;7.834;2023-05-11T07:07:28;150878.69;;;11.48;100.00
3796;BME280;1913;50.660;7.834;2023-05-11T07:09:54;150862.34;;;11.42;100.00
3796;BME280;1913;50.660;7.834;2023-05-11T07:12:19;150876.19;;;11.47;100.00
3796;BME280;1913;50.660;7.834;2023-05-11T07:14:44;150872.44;;;11.46;100.00
3796;BME280;1913;50.660;7.834;2023-05-11T07:17:10;150883.72;;;11.50;100.00
3796;BME280;1913;50.660;7.834;2023-05-11T07:19:35;150866.13;;;11.43;100.00
3796;BME280;1913;50.660;7.834;2023-05-11T07:22:01;150891.28;;;11.54;100.00
3796;BME280;1913;50.660;7.834;2023-05-11T07:24:26;150884.97;;;11.51;100.00
3796;BME280;1913;50.660;7.834;2023-05-11T07:26:52;150927.75;;;11.68;100.00
3796;BME280;1913;50.660;7.834;2023-05-11T07:29:17;150934.03;;;11.71;100.00
3796;BME280;1913;50.660;7.834;2023-05-11T07:31:43;150915.19;;;11.63;100.00
3796;BME280;1913;50.660;7.834;2023-05-11T07:34:08;150901.34;;;11.58;100.00
3796;BME280;1913;50.660;7.834;2023-05-11T07:36:34;150905.09;;;11.59;100.00
3796;BME280;1913;50.660;7.834;2023-05-11T07:38:59;150902.59;;;11.58;100.00
3796;BME280;1913;50.660;7.834;2023-05-11T07:41:26;150924.00;;;11.67;100.00
3796;BME280;1913;50.660;7.834;2023-05-11T07:43:52;150961.69;;;11.82;100.00
3796;BME280;1913;50.660;7.834;2023-05-11T07:46:18;150916.44;;;11.64;100.00
3796;BME280;1913;50.660;7.834;2023-05-11T07:48:43;150930.25;;;11.69;100.00
3796;BME280;1913;50.660;7.834;2023-05-11T07:51:10;150910.13;;;11.61;100.00
3796;BME280;1913;50.660;7.834;2023-05-11T07:53:35;150921.44;;;11.66;100.00
3796;BME280;1913;50.660;7.834;2023-05-11T07:56:01;150907.63;;;11.60;100.00
3796;BME280;1913;50.660;7.834;2023-05-11T07:58:28;150879.94;;;11.49;100.00
3796;BME280;1913;50.660;7.834;2023-05-11T08:00:55;150903.84;;;11.59;100.00
3796;BME280;1913;50.660;7.834;2023-05-11T08:03:20;150871.13;;;11.45;100.00
3796;BME280;1913;50.660;7.834;2023-05-11T08:05:46;150898.84;;;11.57;100.00
3796;BME280;1913;50.660;7.834;2023-05-11T08:08:11;150908.88;;;11.61;100.00
3796;BME280;1913;50.660;7.834;2023-05-11T08:10:36;150924.00;;;11.67;100.00
3796;BME280;1913;50.660;7.834;2023-05-11T08:13:02;150908.88;;;11.61;100.00
3796;BME280;1913;50.660;7.834;2023-05-11T08:15:28;150944.09;;;11.75;100.00
3796;BME280;1913;50.660;7.834;2023-05-11T08:17:53;150940.28;;;11.73;100.00
3796;BME280;1913;50.660;7.834;2023-05-11T08:20:19;150971.81;;;11.86;100.00
3796;BME280;1913;50.660;7.834;2023-05-11T08:23:04;150975.56;;;11.88;100.00
3796;BME280;1913;50.660;7.834;2023-05-11T08:25:30;151018.31;;;12.05;100.00
3796;BME280;1913;50.660;7.834;2023-05-11T08:27:57;151029.69;;;12.10;100.00
3796;BME280;1913;50.660;7.834;2023-05-11T08:30:22;151082.50;;;12.31;100.00
3796;BME280;1913;50.660;7.834;2023-05-11T08:32:48;151097.56;;;12.37;100.00
3796;BME280;1913;50.660;7.834;2023-05-11T08:35:13;151127.78;;;12.50;100.00
3796;BME280;1913;50.660;7.834;2023-05-11T08:37:38;151157.97;;;12.62;100.00
3796;BME280;1913;50.660;7.834;2023-05-11T08:40:04;151179.38;;;12.70;100.00
3796;BME280;1913;50.660;7.834;2023-05-11T08:42:32;151178.13;;;12.70;100.00
3796;BME280;1913;50.660;7.834;2023-05-11T08:45:00;151239.81;;;12.95;100.00
3796;BME280;1913;50.660;7.834;2023-05-11T08:47:26;151190.69;;;12.75;100.00
3796;BME280;1913;50.660;7.834;2023-05-11T08:49:52;151190.69;;;12.75;100.00
3796;BME280;1913;50.660;7.834;2023-05-11T08:52:18;151207.06;;;12.82;100.00
3796;BME280;1913;50.660;7.834;2023-05-11T08:54:45;151231.00;;;12.91;100.00
3796;BME280;1913;50.660;7.834;2023-05-11T08:57:12;151214.63;;;12.85;100.00
3796;BME280;1913;50.660;7.834;2023-05-11T08:59:40;151208.31;;;12.82;100.00
3796;BME280;1913;50.660;7.834;2023-05-11T09:02:09;151144.16;;;12.56;100.00
3796;BME280;1913;50.660;7.834;2023-05-11T09:04:38;151178.13;;;12.70;100.00
3796;BME280;1913;50.660;7.834;2023-05-11T09:07:04;151189.44;;;12.75;100.00
3796;BME280;1913;50.660;7.834;2023-05-11T09:09:30;151280.03;;;13.11;100.00
3796;BME280;1913;50.660;7.834;2023-05-11T09:11:55;151385.84;;;13.54;100.00
3796;BME280;1913;50.660;7.834;2023-05-11T09:14:21;151408.53;;;13.63;100.00
3796;BME280;1913;50.660;7.834;2023-05-11T09:16:46;151473.97;;;13.90;100.00
3796;BME280;1913;50.660;7.834;2023-05-11T09:19:13;151554.56;;;14.23;100.00
3796;BME280;1913;50.660;7.834;2023-05-11T09:21:42;151579.78;;;14.33;100.00
3796;BME280;1913;50.660;7.834;2023-05-11T09:24:10;151596.16;;;14.40;100.00
3796;BME280;1913;50.660;7.834;2023-05-11T09:26:37;151663.00;;;14.67;100.00
3796;BME280;1913;50.660;7.834;2023-05-11T09:29:03;151586.09;;;14.35;100.00
3796;BME280;1913;50.660;7.834;2023-05-11T09:31:41;151569.72;;;14.29;100.00
3796;BME280;1913;50.660;7.834;2023-05-11T09:34:15;151671.81;;;14.70;100.00
3796;BME280;1913;50.660;7.834;2023-05-11T09:36:42;151717.19;;;14.89;100.00
3796;BME280;1913;50.660;7.834;2023-05-11T09:39:09;151772.59;;;15.11;100.00
3796;BME280;1913;50.660;7.834;2023-05-11T09:41:35;151724.75;;;14.92;100.00
3796;BME280;1913;50.660;7.834;2023-05-11T09:46:42;151869.66;;;15.50;100.00
3796;BME280;1913;50.660;7.834;2023-05-11T09:49:09;151944.13;;;15.80;100.00
3796;BME280;1913;50.660;7.834;2023-05-11T09:51:37;151902.47;;;15.64;100.00
3796;BME280;1913;50.660;7.834;2023-05-11T09:54:16;151998.34;;;16.02;100.00
3796;BME280;1913;50.660;7.834;2023-05-11T09:56:47;151941.63;;;15.79;100.00
3796;BME280;1913;50.660;7.834;2023-05-11T09:59:37;151853.28;;;15.44;100.00
3796;BME280;1913;50.660;7.834;2023-05-11T10:02:28;151999.59;;;16.03;100.00
3796;BME280;1913;50.660;7.834;2023-05-11T10:04:56;151979.44;;;15.95;100.00
3796;BME280;1913;50.660;7.834;2023-05-11T10:07:41;152055.06;;;16.25;100.00
3796;BME280;1913;50.660;7.834;2023-05-11T10:10:29;152157.25;;;16.67;100.00
3796;BME280;1913;50.660;7.834;2023-05-11T10:13:15;152156.00;;;16.66;100.00
3796;BME280;1913;50.660;7.834;2023-05-11T10:15:42;152017.25;;;16.10;100.00
3796;BME280;1913;50.660;7.834;2023-05-11T10:18:08;152002.09;;;16.04;100.00
3796;BME280;1913;50.660;7.834;2023-05-11T10:20:33;151964.28;;;15.89;100.00
3796;BME280;1913;50.660;7.834;2023-05-11T10:22:59;152023.56;;;16.13;100.00
3796;BME280;1913;50.660;7.834;2023-05-11T10:25:24;151997.09;;;16.02;100.00
3796;BME280;1913;50.660;7.834;2023-05-11T10:27:53;151829.34;;;15.34;100.00
3796;BME280;1913;50.660;7.834;2023-05-11T10:30:19;151835.63;;;15.37;100.00
3796;BME280;1913;50.660;7.834;2023-05-11T10:32:45;151854.56;;;15.44;100.00
3796;BME280;1913;50.660;7.834;2023-05-11T10:35:13;151941.63;;;15.79;100.00
3796;BME280;1913;50.660;7.834;2023-05-11T10:37:40;152012.22;;;16.08;100.00
3796;BME280;1913;50.660;7.834;2023-05-11T10:40:09;152128.25;;;16.55;100.00
3796;BME280;1913;50.660;7.834;2023-05-11T10:48:21;152000.84;;;16.03;100.00
3796;BME280;1913;50.660;7.834;2023-05-11T10:51:04;152028.59;;;16.15;100.00
3796;BME280;1913;50.660;7.834;2023-05-11T10:59:33;152057.63;;;16.26;100.00
3796;BME280;1913;50.660;7.834;2023-05-11T11:02:03;152087.88;;;16.39;100.00
3796;BME280;1913;50.660;7.834;2023-05-11T11:04:46;152238.03;;;16.99;100.00
3796;BME280;1913;50.660;7.834;2023-05-11T11:07:13;152345.31;;;17.43;100.00
3796;BME280;1913;50.660;7.834;2023-05-11T11:09:54;152393.31;;;17.62;100.00
3796;BME280;1913;50.660;7.834;2023-05-11T11:12:22;152474.13;;;17.95;100.00
3796;BME280;1913;50.660;7.834;2023-05-11T11:14:59;152567.59;;;18.33;100.00
3796;BME280;1913;50.660;7.834;2023-05-11T11:17:29;152419.81;;;17.73;100.00
3796;BME280;1913;50.660;7.834;2023-05-11T11:20:05;152465.28;;;17.91;100.00
3796;BME280;1913;50.660;7.834;2023-05-11T11:28:01;152632.00;;;18.59;100.00
3796;BME280;1913;50.660;7.834;2023-05-11T11:30:27;152710.34;;;18.90;100.00
3796;BME280;1913;50.660;7.834;2023-05-11T11:38:05;152772.25;;;19.16;100.00
3796;BME280;1913;50.660;7.834;2023-05-11T11:40:39;152786.19;;;19.21;100.00
3796;BME280;1913;50.660;7.834;2023-05-11T11:43:13;152731.81;;;18.99;100.00
3796;BME280;1913;50.660;7.834;2023-05-11T11:46:01;152764.69;;;19.12;100.00
3796;BME280;1913;50.660;7.834;2023-05-11T11:48:47;152872.06;;;19.56;100.00
3796;BME280;1913;50.660;7.834;2023-05-11T11:51:13;152891.06;;;19.64;100.00
3796;BME280;1913;50.660;7.834;2023-05-11T11:53:58;152802.56;;;19.28;100.00
3796;BME280;1913;50.660;7.834;2023-05-11T12:01:19;152993.47;;;20.05;88.25
3796;BME280;1913;50.660;7.834;2023-05-11T12:03:46;152843.03;;;19.44;94.43
3796;BME280;1913;50.660;7.834;2023-05-11T12:06:13;152735.63;;;19.01;94.04
3796;BME280;1913;50.660;7.834;2023-05-11T12:08:40;152700.25;;;18.86;95.26
3796;BME280;1913;50.660;7.834;2023-05-11T12:11:06;152722.97;;;18.96;100.00
3796;BME280;1913;50.660;7.834;2023-05-11T12:13:32;152681.31;;;18.79;100.00
3796;BME280;1913;50.660;7.834;2023-05-11T12:16:11;152716.69;;;18.93;97.63
3796;BME280;1913;50.660;7.834;2023-05-11T12:18:37;152594.13;;;18.43;100.00
3796;BME280;1913;50.660;7.834;2023-05-11T12:21:03;152629.47;;;18.58;100.00
3796;BME280;1913;50.660;7.834;2023-05-11T12:23:29;152571.38;;;18.34;100.00
3796;BME280;1913;50.660;7.834;2023-05-11T12:26:04;152505.72;;;18.08;100.00
3796;BME280;1913;50.660;7.834;2023-05-11T12:28:30;152541.06;;;18.22;100.00
3796;BME280;1913;50.660;7.834;2023-05-11T12:30:56;152458.97;;;17.89;100.00
3796;BME280;1913;50.660;7.834;2023-05-11T12:33:22;152393.31;;;17.62;100.00
3796;BME280;1913;50.660;7.834;2023-05-11T12:35:52;152397.06;;;17.64;100.00
3796;BME280;1913;50.660;7.834;2023-05-11T12:38:17;152436.28;;;17.80;100.00
3796;BME280;1913;50.660;7.834;2023-05-11T12:40:51;152383.22;;;17.58;100.00
3796;BME280;1913;50.660;7.834;2023-05-11T12:43:21;152418.56;;;17.73;100.00
3796;BME280;1913;50.660;7.834;2023-05-11T12:45:46;152431.22;;;17.78;100.00
3796;BME280;1913;50.660;7.834;2023-05-11T12:48:12;152475.41;;;17.95;100.00
3796;BME280;1913;50.660;7.834;2023-05-11T12:50:44;152504.47;;;18.07;100.00
3796;BME280;1913;50.660;7.834;2023-05-11T12:53:17;152504.47;;;18.07;100.00
3796;BME280;1913;50.660;7.834;2023-05-11T12:55:44;152407.16;;;17.68;100.00
3796;BME280;1913;50.660;7.834;2023-05-11T12:58:12;152370.56;;;17.53;100.00
3796;BME280;1913;50.660;7.834;2023-05-11T13:00:51;152321.38;;;17.33;100.00
3796;BME280;1913;50.660;7.834;2023-05-11T13:03:24;152296.13;;;17.23;100.00
3796;BME280;1913;50.660;7.834;2023-05-11T13:05:50;152381.97;;;17.58;100.00
3796;BME280;1913;50.660;7.834;2023-05-11T13:08:19;152445.13;;;17.83;100.00
3796;BME280;1913;50.660;7.834;2023-05-11T13:10:45;152471.63;;;17.94;100.00
3796;BME280;1913;50.660;7.834;2023-05-11T13:13:27;152518.31;;;18.13;100.00
3796;BME280;1913;50.660;7.834;2023-05-11T13:15:54;152594.13;;;18.43;100.00
3796;BME280;1913;50.660;7.834;2023-05-11T13:18:19;152585.28;;;18.40;100.00
3796;BME280;1913;50.660;7.834;2023-05-11T13:20:45;152568.84;;;18.33;100.00
3796;BME280;1913;50.660;7.834;2023-05-11T13:23:13;152541.06;;;18.22;100.00
3796;BME280;1913;50.660;7.834;2023-05-11T13:25:58;152634.50;;;18.60;100.00
3796;BME280;1913;50.660;7.834;2023-05-11T13:28:24;152650.94;;;18.66;100.00
3796;BME280;1913;50.660;7.834;2023-05-11T13:30:57;152705.28;;;18.88;100.00
3796;BME280;1913;50.660;7.834;2023-05-11T13:33:45;152571.38;;;18.34;100.00
3796;BME280;1913;50.660;7.834;2023-05-11T13:36:11;152582.72;;;18.39;100.00
3796;BME280;1913;50.660;7.834;2023-05-11T13:38:36;152515.81;;;18.12;100.00
3796;BME280;1913;50.660;7.834;2023-05-11T13:41:02;152562.53;;;18.31;100.00
3796;BME280;1913;50.660;7.834;2023-05-11T13:43:27;152455.19;;;17.87;100.00